Time;durP1;ratioP1;P1;durP2;ratioP2;P2;SDS_P1;SDS_P2;PMS_P1;PMS_P2;Temp;Humidity;BMP_temperature;BMP_pressure;BME280_temperature;BME280_humidity;BME280_pressure;Samples;Min_cycle;Max_cycle;Signal;HPM_P1;HPM_P2
2022/06/07 00:00:06;;;;;;;13.30;7.40;;;;;;;26.51;48.32;100846.19;5005597;28;20053;-82
2022/06/07 00:02:33;;;;;;;10.82;5.88;;;;;;;26.36;48.55;100841.22;5005453;28;20064;-82
2022/06/07 00:05:03;;;;;;;13.52;5.75;;;;;;;26.61;48.62;100861.97;5006541;28;20435;-82
2022/06/07 00:07:29;;;;;;;17.13;6.07;;;;;;;26.36;48.29;100804.97;5005424;28;20061;-81
2022/06/07 00:09:56;;;;;;;14.07;5.88;;;;;;;26.41;48.10;100826.91;5021520;28;20099;-82
2022/06/07 00:12:23;;;;;;;12.50;5.90;;;;;;;26.29;47.80;100816.00;5025912;28;20045;-80
2022/06/07 00:14:51;;;;;;;10.85;5.75;;;;;;;25.86;47.09;100740.13;5025557;28;20054;-81
2022/06/07 00:17:18;;;;;;;9.93;5.03;;;;;;;26.48;46.32;100840.38;5025993;28;20261;-81
2022/06/07 00:19:45;;;;;;;10.40;5.00;;;;;;;26.48;45.32;100824.84;5027207;28;20064;-82
2022/06/07 00:22:11;;;;;;;14.60;5.18;;;;;;;26.46;44.53;100807.09;5041158;28;20473;-82
2022/06/07 00:24:38;;;;;;;9.95;4.85;;;;;;;26.60;45.22;100842.09;5047450;28;20094;-80
2022/06/07 00:27:06;;;;;;;8.00;5.10;;;;;;;26.46;45.26;100834.31;5045111;28;20060;-80
2022/06/07 00:29:33;;;;;;;12.10;5.03;;;;;;;26.05;45.38;100774.34;5045993;28;20452;-80
2022/06/07 00:32:01;;;;;;;7.47;4.80;;;;;;;25.49;44.79;100697.59;5045256;28;20052;-82
2022/06/07 00:34:28;;;;;;;7.63;4.57;;;;;;;26.42;44.41;100836.72;5078586;28;20132;-81
2022/06/07 00:36:57;;;;;;;6.65;4.65;;;;;;;26.37;44.45;100822.97;5045290;28;20261;-81
2022/06/07 00:39:24;;;;;;;6.85;4.05;;;;;;;26.39;43.98;100826.31;5045258;28;20056;-81
2022/06/07 00:41:51;;;;;;;10.10;4.88;;;;;;;26.10;44.19;100779.91;5045312;28;20514;-81
2022/06/07 00:44:25;;;;;;;9.07;4.75;;;;;;;26.15;44.17;100793.63;5045378;28;20052;-81
2022/06/07 00:47:03;;;;;;;7.97;4.10;;;;;;;25.97;44.24;100769.22;5046927;28;20045;-82
2022/06/07 00:49:35;;;;;;;8.77;4.10;;;;;;;26.31;43.77;100807.56;5045037;28;20041;-82
2022/06/07 00:52:03;;;;;;;6.35;4.90;;;;;;;26.29;43.88;100812.41;5043679;28;20053;-82
2022/06/07 00:54:32;;;;;;;6.57;4.65;;;;;;;25.51;43.42;100705.50;5025018;28;20486;-83
2022/06/07 00:57:00;;;;;;;11.00;3.63;;;;;;;25.58;43.53;100700.78;5025867;28;20114;-82
2022/06/07 00:59:27;;;;;;;5.13;3.83;;;;;;;26.26;43.55;100810.19;5024587;28;20415;-81
2022/06/07 01:01:54;;;;;;;10.10;4.35;;;;;;;26.12;43.71;100785.94;5026160;28;20057;-81
2022/06/07 01:04:23;;;;;;;7.97;4.47;;;;;;;26.25;43.46;100814.81;5057626;28;20053;-81
2022/06/07 01:12:21;;;;;;;7.93;4.03;;;;;;;26.20;43.84;100799.19;5029625;28;20042;-80
2022/06/07 01:14:48;;;;;;;9.10;4.63;;;;;;;25.96;44.06;100779.28;5061096;28;20470;-80
2022/06/07 01:17:15;;;;;;;9.40;4.35;;;;;;;25.46;44.19;100699.94;5028098;28;20085;-81
2022/06/07 01:19:42;;;;;;;5.43;4.60;;;;;;;26.03;44.41;100795.50;5028138;28;20045;-82
2022/06/07 01:22:08;;;;;;;7.20;3.90;;;;;;;25.98;43.91;100781.78;5043563;28;20056;-82
2022/06/07 01:24:36;;;;;;;6.22;3.90;;;;;;;25.82;44.03;100766.09;5081509;28;20113;-81
2022/06/07 01:27:04;;;;;;;12.00;3.92;;;;;;;26.00;43.76;100785.09;5048296;28;20045;-81
2022/06/07 01:29:30;;;;;;;10.55;4.25;;;;;;;25.92;43.83;100778.06;5048584;28;20698;-82
2022/06/07 01:31:57;;;;;;;10.48;4.68;;;;;;;25.95;43.89;100777.63;5049103;28;20053;-81
2022/06/07 01:34:27;;;;;;;6.15;4.30;;;;;;;25.03;43.74;100611.34;5047787;28;20109;-81
2022/06/07 01:36:57;;;;;;;5.97;4.22;;;;;;;25.91;43.55;100742.97;5047607;28;20049;-82
2022/06/07 01:42:12;;;;;;;6.22;4.13;;;;;;;25.65;43.87;100720.53;5048729;28;20053;-81
2022/06/07 01:44:42;;;;;;;9.38;4.00;;;;;;;24.89;43.83;100594.41;5047839;28;20495;-82
2022/06/07 01:47:12;;;;;;;10.32;4.18;;;;;;;25.84;43.41;100720.47;5048994;28;20053;-83
2022/06/07 01:49:40;;;;;;;10.60;4.07;;;;;;;25.34;43.69;100654.56;5047311;28;20560;-82
2022/06/07 01:52:08;;;;;;;5.47;3.33;;;;;;;25.61;43.66;100692.19;5046341;28;20110;-82
2022/06/07 01:54:35;;;;;;;10.38;4.05;;;;;;;25.77;43.81;100721.38;5027989;28;20586;-81
2022/06/07 01:57:02;;;;;;;10.38;4.43;;;;;;;25.87;43.40;100725.47;5027479;28;20045;-81
2022/06/07 01:59:28;;;;;;;9.20;4.20;;;;;;;25.95;43.28;100745.00;5027585;28;20057;-81
2022/06/07 02:01:55;;;;;;;11.80;4.10;;;;;;;26.00;43.18;100736.13;5027255;28;20053;-81
2022/06/07 02:04:22;;;;;;;5.68;3.63;;;;;;;25.90;43.94;100739.44;5027514;28;20454;-82
2022/06/07 02:06:49;;;;;;;6.70;3.88;;;;;;;25.71;44.24;100710.66;5027566;28;20077;-81
2022/06/07 02:09:19;;;;;;;7.32;4.00;;;;;;;25.67;44.36;100721.13;5023593;28;20595;-82
2022/06/07 02:11:46;;;;;;;8.13;3.80;;;;;;;25.57;44.16;100715.44;5008998;28;20141;-81
2022/06/07 02:14:13;;;;;;;9.05;4.07;;;;;;;24.93;44.20;100611.91;5024085;28;20408;-81
2022/06/07 02:16:41;;;;;;;8.60;4.32;;;;;;;25.76;44.24;100736.06;5008379;28;20060;-81
2022/06/07 02:19:07;;;;;;;9.77;4.38;;;;;;;25.44;44.28;100694.75;5008598;28;20085;-81
2022/06/07 02:21:34;;;;;;;8.40;4.28;;;;;;;25.52;43.89;100709.91;5027431;28;20114;-81
2022/06/07 02:24:01;;;;;;;11.07;4.05;;;;;;;24.89;44.21;100589.78;5047253;28;20242;-82
2022/06/07 02:26:32;;;;;;;6.13;3.65;;;;;;;25.57;44.38;100702.69;5048066;28;20044;-81
2022/06/07 02:29:04;;;;;;;10.93;4.30;;;;;;;25.59;44.11;100692.41;5046657;28;20052;-81
2022/06/07 02:31:32;;;;;;;;;;;;;;;25.68;44.28;100711.94;5047497;28;20130;-81
2022/06/07 02:34:00;;;;;;;8.55;4.15;;;;;;;25.27;44.39;100670.13;5047786;28;19927;-81
2022/06/07 02:36:31;;;;;;;8.27;4.43;;;;;;;25.42;44.64;100683.28;5046632;28;20072;-80
2022/06/07 02:38:59;;;;;;;13.70;4.10;;;;;;;25.32;44.50;100672.97;5048052;28;20103;-81
2022/06/07 02:41:28;;;;;;;6.93;3.97;;;;;;;24.69;44.68;100562.13;5047669;28;20549;-82
2022/06/07 02:43:54;;;;;;;6.00;4.07;;;;;;;25.37;44.99;100673.09;5046356;28;20110;-82
2022/06/07 02:46:21;;;;;;;7.63;4.28;;;;;;;24.76;44.38;100553.84;5079603;28;20445;-81
2022/06/07 02:48:48;;;;;;;9.68;4.55;;;;;;;25.44;44.51;100673.00;5046119;28;20049;-81
2022/06/07 02:51:15;;;;;;;8.00;3.63;;;;;;;25.21;44.63;100641.16;5079943;28;20095;-81
2022/06/07 02:53:44;;;;;;;16.90;5.13;;;;;;;24.77;44.61;100586.22;5015840;28;20042;-81
2022/06/07 02:56:12;;;;;;;9.73;4.18;;;;;;;25.50;44.67;100698.41;5008156;28;20058;-82
2022/06/07 02:58:38;;;;;;;7.95;4.38;;;;;;;25.32;45.24;100691.19;5007749;28;20488;-82
2022/06/07 03:01:05;;;;;;;6.88;4.55;;;;;;;25.49;45.00;100718.53;5006388;28;20049;-81
2022/06/07 03:03:31;;;;;;;5.20;3.97;;;;;;;25.40;45.28;100717.19;5007092;28;20448;-79
2022/06/07 03:05:58;;;;;;;10.13;4.97;;;;;;;24.56;45.24;100565.00;5008024;28;20253;-81
2022/06/07 03:08:26;;;;;;;10.35;4.88;;;;;;;25.05;45.41;100660.78;5015215;28;20053;-82
2022/06/07 03:10:55;;;;;;;5.72;4.03;;;;;;;25.27;45.75;100710.88;5031263;28;20577;-82
2022/06/07 03:13:21;;;;;;;7.93;4.60;;;;;;;25.15;45.92;100697.22;5026714;28;20046;-82
2022/06/07 03:15:48;;;;;;;6.30;4.35;;;;;;;25.31;45.85;100709.34;5026064;28;20061;-82
2022/06/07 03:18:15;;;;;;;8.32;4.35;;;;;;;24.60;45.83;100607.75;5026048;28;20052;-81
2022/06/07 03:20:43;;;;;;;7.90;4.80;;;;;;;25.06;45.82;100681.47;5028094;28;20049;-82
2022/06/07 03:23:10;;;;;;;8.55;4.07;;;;;;;24.84;45.69;100652.09;5045199;28;20053;-81
2022/06/07 03:25:36;;;;;;;9.30;4.70;;;;;;;24.91;45.84;100658.28;5045459;28;20115;-81
2022/06/07 03:28:03;;;;;;;11.15;4.47;;;;;;;25.03;46.08;100687.38;5045366;28;20149;-82
2022/06/07 03:30:30;;;;;;;12.25;4.90;;;;;;;24.46;46.31;100598.94;5045171;28;20484;-81
2022/06/07 03:32:58;;;;;;;9.73;4.88;;;;;;;25.18;46.18;100706.84;5078740;28;20080;-80
2022/06/07 03:35:25;;;;;;;8.73;4.63;;;;;;;24.30;46.38;100575.13;5046382;28;20477;-81
2022/06/07 03:37:51;;;;;;;7.65;4.38;;;;;;;24.30;46.53;100591.41;5046227;28;20052;-81
2022/06/07 03:43:06;;;;;;;8.63;4.43;;;;;;;24.72;47.14;100681.91;5046409;28;20045;-82
2022/06/07 03:45:33;;;;;;;9.45;4.40;;;;;;;24.59;47.21;100660.38;5045191;28;20049;-81
2022/06/07 03:47:59;;;;;;;9.25;4.88;;;;;;;24.74;47.25;100695.28;5045050;28;20106;-81
2022/06/07 03:50:27;;;;;;;8.00;5.03;;;;;;;24.60;47.31;100678.31;5046215;28;20433;-81
2022/06/07 03:52:54;;;;;;;7.25;4.55;;;;;;;24.32;47.78;100643.53;5037743;28;20073;-81
2022/06/07 03:55:20;;;;;;;11.73;5.65;;;;;;;24.39;47.91;100665.97;5025064;28;20056;-82
2022/06/07 03:57:47;;;;;;;12.65;4.88;;;;;;;24.72;48.10;100721.81;5024944;28;20073;-81
2022/06/07 04:00:14;;;;;;;9.30;5.68;;;;;;;24.62;48.05;100716.91;5025979;28;20041;-82
2022/06/07 04:02:42;;;;;;;9.02;4.95;;;;;;;24.03;48.74;100629.69;5026038;28;20059;-82
2022/06/07 04:05:09;;;;;;;9.80;5.15;;;;;;;23.39;48.97;100536.03;5025005;28;20128;-82
2022/06/07 04:10:20;;;;;;;8.30;4.72;;;;;;;24.39;48.40;100693.13;5026219;28;20084;-82
2022/06/07 04:12:47;;;;;;;7.90;4.40;;;;;;;24.38;49.04;100686.03;5026526;28;20084;-81
2022/06/07 04:15:14;;;;;;;8.98;5.25;;;;;;;24.56;49.51;100714.25;5026535;28;20085;-81
2022/06/07 04:17:40;;;;;;;10.20;6.18;;;;;;;23.98;48.70;100626.81;5026762;28;20408;-81
2022/06/07 04:20:09;;;;;;;10.77;5.25;;;;;;;24.52;49.29;100703.03;5031073;28;20054;-80
2022/06/07 04:22:36;;;;;;;15.13;5.57;;;;;;;24.72;48.59;100719.91;5041525;28;20087;-81
2022/06/07 04:25:03;;;;;;;10.73;5.35;;;;;;;24.59;48.81;100705.66;5045834;28;20045;-82
2022/06/07 04:27:30;;;;;;;10.90;5.03;;;;;;;24.67;48.84;100721.66;5033580;28;20049;-81
2022/06/07 04:29:57;;;;;;;7.38;5.15;;;;;;;24.64;48.84;100713.97;5027553;28;20296;-81
2022/06/07 04:32:24;;;;;;;9.10;4.57;;;;;;;24.58;48.31;100715.69;5025223;28;20104;-81
2022/06/07 04:34:51;;;;;;;5.70;5.03;;;;;;;24.52;49.08;100706.59;5025558;28;20061;-82
2022/06/07 04:37:19;;;;;;;7.97;4.85;;;;;;;24.43;50.04;100712.50;5025723;28;20312;-83
2022/06/07 04:39:46;;;;;;;11.40;5.32;;;;;;;24.00;49.74;100642.84;5025276;28;20041;-81
2022/06/07 04:42:12;;;;;;;9.45;5.50;;;;;;;23.51;48.82;100539.66;5028854;28;20057;-81
2022/06/07 04:44:39;;;;;;;11.15;4.80;;;;;;;24.23;49.21;100655.75;5028748;28;20561;-82
2022/06/07 04:47:06;;;;;;;8.00;5.15;;;;;;;24.24;48.89;100638.41;5029076;28;20053;-82
2022/06/07 04:49:33;;;;;;;8.82;5.20;;;;;;;24.91;47.97;100712.59;5028026;28;20045;-82
2022/06/07 04:51:59;;;;;;;8.13;5.05;;;;;;;24.91;47.80;100707.16;5028357;28;20136;-81
2022/06/07 04:54:40;;;;;;;10.27;5.53;;;;;;;24.88;48.24;100721.19;5029935;28;20049;-80
2022/06/07 04:57:07;;;;;;;7.00;5.45;;;;;;;24.95;47.91;100719.22;5028401;28;20061;-80
2022/06/07 04:59:33;;;;;;;8.68;5.50;;;;;;;25.01;47.68;100717.47;5028523;28;20049;-79
2022/06/07 05:02:00;;;;;;;10.68;5.80;;;;;;;24.66;48.00;100693.69;5029521;28;20061;-80
2022/06/07 05:04:27;;;;;;;9.73;5.70;;;;;;;24.91;48.13;100726.16;5028394;28;20053;-79
2022/06/07 05:06:53;;;;;;;9.90;5.53;;;;;;;24.98;48.55;100733.38;5029505;28;20073;-80
2022/06/07 05:09:22;;;;;;;9.45;5.65;;;;;;;25.05;47.92;100731.41;5025118;28;20253;-82
2022/06/07 05:11:51;;;;;;;12.23;5.53;;;;;;;25.17;47.43;100740.47;5015750;28;20041;-81
2022/06/07 05:14:19;;;;;;;8.23;5.72;;;;;;;24.50;47.97;100640.84;5061413;28;20650;-81
2022/06/07 05:16:48;;;;;;;8.10;5.78;;;;;;;25.28;47.57;100760.63;5030195;28;20427;-81
2022/06/07 05:19:16;;;;;;;7.30;5.90;;;;;;;25.32;47.44;100761.81;5033298;28;20421;-81
2022/06/07 05:21:46;;;;;;;11.68;5.78;;;;;;;25.26;47.67;100751.84;5075821;28;20045;-80
2022/06/07 05:24:13;;;;;;;7.13;5.23;;;;;;;25.03;47.72;100723.50;5080228;28;20069;-81
2022/06/07 05:26:56;;;;;;;8.15;5.20;;;;;;;25.32;47.62;100768.06;5030311;28;20122;-81
2022/06/07 05:29:27;;;;;;;11.60;5.03;;;;;;;25.37;48.17;100776.38;5029367;28;20053;-81
2022/06/07 05:31:54;;;;;;;;;;;;;;;25.33;47.98;100775.16;5062537;28;20056;-81
2022/06/07 05:34:22;;;;;;;8.15;5.82;;;;;;;25.42;48.24;100788.44;5028242;28;19929;-81
2022/06/07 05:36:49;;;;;;;8.82;5.28;;;;;;;25.48;47.38;100763.88;5028016;28;20507;-82
2022/06/07 05:39:24;;;;;;;8.07;5.07;;;;;;;25.51;46.86;100771.59;5028951;28;20136;-81
2022/06/07 05:41:52;;;;;;;9.20;5.55;;;;;;;24.59;47.31;100625.09;5027825;28;20045;-81
2022/06/07 05:44:20;;;;;;;8.95;5.45;;;;;;;24.73;46.85;100632.00;5027742;28;20503;-81
2022/06/07 05:46:48;;;;;;;18.73;7.22;;;;;;;25.84;47.61;100785.72;5027759;28;20053;-77
2022/06/07 05:49:16;;;;;;;93.55;12.85;;;;;;;25.54;47.45;100738.50;5029248;28;20057;-80
2022/06/07 05:51:43;;;;;;;14.05;5.68;;;;;;;25.90;47.93;100795.69;5027888;28;20475;-84
2022/06/07 05:54:11;;;;;;;11.98;6.55;;;;;;;25.89;48.06;100788.59;5027492;28;20053;-79
2022/06/07 05:56:40;;;;;;;8.05;5.53;;;;;;;25.88;47.86;100803.28;5027480;28;20125;-80
2022/06/07 05:59:07;;;;;;;11.98;5.35;;;;;;;25.99;51.36;100807.91;5027910;28;20143;-78
2022/06/07 06:01:34;;;;;;;7.78;5.22;;;;;;;26.21;53.36;100819.91;5027400;28;20133;-78
2022/06/07 06:04:07;;;;;;;10.63;6.00;;;;;;;26.09;47.75;100815.47;5027255;28;20499;-79
2022/06/07 06:06:38;;;;;;;7.47;5.72;;;;;;;26.03;52.29;100821.88;5028548;28;20053;-78
2022/06/07 06:11:50;;;;;;;13.55;6.35;;;;;;;25.89;49.26;100832.13;5028396;28;19921;-78
2022/06/07 06:14:19;;;;;;;19.75;9.35;;;;;;;24.93;50.71;100680.59;5027092;28;20132;-79
2022/06/07 06:16:45;;;;;;;12.90;7.50;;;;;;;25.63;52.13;100815.09;5058012;28;20068;-79
2022/06/07 06:19:12;;;;;;;17.63;9.00;;;;;;;25.50;52.96;100815.28;5023855;28;20207;-80
2022/06/07 06:21:43;;;;;;;16.30;9.35;;;;;;;25.35;53.64;100827.38;5025052;28;20476;-79
2022/06/07 06:24:11;;;;;;;20.33;12.50;;;;;;;25.10;54.23;100813.06;5025791;28;20060;-80
2022/06/07 06:26:38;;;;;;;23.23;13.52;;;;;;;25.18;54.40;100826.34;5006453;28;20057;-79
2022/06/07 06:29:08;;;;;;;19.23;11.95;;;;;;;24.15;55.17;100707.56;5008221;28;20363;-79
2022/06/07 06:31:36;;;;;;;24.73;12.45;;;;;;;24.82;56.35;100817.13;5008866;28;20048;-80
2022/06/07 06:34:03;;;;;;;21.02;12.85;;;;;;;24.53;56.34;100786.09;5026032;28;20069;-81
2022/06/07 06:36:31;;;;;;;24.33;15.18;;;;;;;24.78;56.29;100834.91;5024397;28;20056;-79
2022/06/07 06:38:58;;;;;;;26.27;15.07;;;;;;;24.62;57.14;100838.22;5025169;28;20046;-79
2022/06/07 06:41:28;;;;;;;27.60;14.77;;;;;;;24.59;57.39;100855.78;5024615;28;20622;-80
2022/06/07 06:43:58;;;;;;;35.03;16.48;;;;;;;24.03;57.87;100811.34;5025205;28;20060;-80
2022/06/07 06:46:33;;;;;;;21.38;14.18;;;;;;;23.72;58.99;100740.88;5007807;28;20065;-80
2022/06/07 06:49:01;;;;;;;24.50;14.70;;;;;;;24.46;58.92;100851.28;5057201;28;20137;-79
2022/06/07 06:51:28;;;;;;;28.63;15.60;;;;;;;24.19;58.51;100806.44;5057372;28;20241;-79
2022/06/07 06:53:57;;;;;;;32.92;13.98;;;;;;;24.19;59.44;100826.22;5026046;28;20049;-78
2022/06/07 06:56:24;;;;;;;32.45;17.48;;;;;;;24.34;59.28;100825.91;5058105;28;20084;-79
2022/06/07 06:58:52;;;;;;;23.95;17.77;;;;;;;24.44;59.19;100842.53;5024876;28;20061;-80
2022/06/07 07:01:26;;;;;;;32.67;18.05;;;;;;;24.44;59.04;100841.69;5024458;28;20285;-80
2022/06/07 07:03:54;;;;;;;32.15;19.00;;;;;;;24.42;59.29;100841.91;5025891;28;20053;-79
2022/06/07 07:06:21;;;;;;;26.80;16.70;;;;;;;24.32;59.37;100844.28;5026036;28;20045;-78
2022/06/07 07:08:49;;;;;;;29.67;17.58;;;;;;;24.42;59.89;100839.19;5022603;28;20059;-79
2022/06/07 07:11:19;;;;;;;35.28;17.92;;;;;;;24.32;59.30;100800.88;5007422;28;20116;-79
2022/06/07 07:13:48;;;;;;;28.17;17.90;;;;;;;24.62;59.33;100832.78;5022975;28;20192;-79
2022/06/07 07:16:18;;;;;;;27.15;17.25;;;;;;;24.74;59.08;100825.56;5006529;28;20485;-80
2022/06/07 07:18:46;;;;;;;35.97;18.13;;;;;;;24.81;59.79;100831.75;5006599;28;20306;-78
2022/06/07 07:21:19;;;;;;;34.03;17.90;;;;;;;24.96;59.02;100834.09;5019224;28;20053;-78
2022/06/07 07:23:47;;;;;;;30.20;17.20;;;;;;;24.95;58.69;100825.13;5045858;28;20469;-79
2022/06/07 07:26:18;;;;;;;35.70;20.48;;;;;;;24.98;58.67;100842.88;5078713;28;20077;-78
2022/06/07 07:28:45;;;;;;;28.30;18.15;;;;;;;24.96;59.20;100817.81;5047452;28;20053;-78
2022/06/07 07:31:14;;;;;;;23.05;15.25;;;;;;;25.21;59.17;100836.75;5047118;28;20292;-78
2022/06/07 07:33:43;;;;;;;28.27;17.55;;;;;;;25.05;59.27;100821.88;5047537;28;20148;-77
2022/06/07 07:36:11;;;;;;;32.90;20.50;;;;;;;24.96;59.03;100787.94;5046318;28;20131;-80
2022/06/07 07:38:41;;;;;;;27.73;18.63;;;;;;;24.84;59.71;100790.56;5045952;28;20041;-78
2022/06/07 07:41:27;;;;;;;28.83;20.63;;;;;;;24.80;59.52;100781.22;5046240;28;20064;-79
2022/06/07 07:43:56;;;;;;;30.58;20.00;;;;;;;25.30;59.52;100837.28;5045812;28;20698;-78
2022/06/07 07:46:26;;;;;;;24.92;19.17;;;;;;;25.29;59.27;100844.63;5034839;28;20085;-79
2022/06/07 07:48:53;;;;;;;33.07;22.30;;;;;;;25.12;59.44;100827.22;5007087;28;20057;-81
2022/06/07 07:51:29;;;;;;;33.30;23.70;;;;;;;25.25;59.41;100862.44;5007184;28;20092;-79
2022/06/07 07:54:00;;;;;;;29.55;20.90;;;;;;;25.25;60.07;100846.13;5023337;28;20128;-81
2022/06/07 07:56:28;;;;;;;32.65;20.75;;;;;;;25.08;60.44;100831.47;5058461;28;20449;-79
2022/06/07 07:58:57;;;;;;;30.35;23.42;;;;;;;25.34;59.54;100852.91;5059517;28;20560;-81
2022/06/07 08:01:28;;;;;;;27.48;22.25;;;;;;;25.02;59.53;100788.91;5025367;28;20541;-80
2022/06/07 08:03:58;;;;;;;28.30;21.17;;;;;;;25.32;59.37;100830.56;5057960;28;20045;-78
2022/06/07 08:06:28;;;;;;;29.67;23.95;;;;;;;25.49;59.13;100851.69;5057887;28;20057;-78
2022/06/07 08:08:56;;;;;;;26.65;21.45;;;;;;;25.36;59.16;100834.47;5026023;28;20049;-80
2022/06/07 08:11:30;;;;;;;29.45;23.23;;;;;;;25.36;59.00;100839.09;5025922;28;20061;-79
2022/06/07 08:13:57;;;;;;;32.50;24.48;;;;;;;25.12;58.71;100795.47;5026236;28;20053;-79
2022/06/07 08:16:24;;;;;;;35.10;23.95;;;;;;;25.53;58.56;100839.28;5024755;28;20172;-80
2022/06/07 08:18:51;;;;;;;33.85;22.77;;;;;;;25.52;58.91;100824.03;5024600;28;20128;-80
2022/06/07 08:21:22;;;;;;;25.60;20.02;;;;;;;25.50;58.81;100807.13;5024944;28;20500;-78
2022/06/07 08:23:49;;;;;;;32.47;23.25;;;;;;;25.75;57.74;100843.19;5025084;28;20049;-78
2022/06/07 08:26:17;;;;;;;37.05;23.77;;;;;;;25.71;58.16;100835.72;5024722;28;20529;-78
2022/06/07 08:28:44;;;;;;;35.17;25.77;;;;;;;25.66;57.77;100833.69;5026371;28;20065;-77
2022/06/07 08:31:17;;;;;;;39.78;30.15;;;;;;;25.50;57.47;100813.38;5024660;28;20053;-79
2022/06/07 08:39:15;;;;;;;31.13;22.63;;;;;;;25.68;57.61;100836.16;5026832;28;20045;-78
2022/06/07 08:41:57;;;;;;;35.25;24.08;;;;;;;25.75;57.38;100832.28;5025197;28;20041;-79
2022/06/07 08:44:32;;;;;;;23.13;19.65;;;;;;;26.03;57.72;100825.41;5024919;28;20573;-78
2022/06/07 08:47:04;;;;;;;30.73;23.13;;;;;;;26.22;56.42;100824.25;5058541;28;20411;-79
2022/06/07 08:49:31;;;;;;;29.05;21.30;;;;;;;26.14;56.08;100802.84;5025991;28;20072;-79
2022/06/07 08:52:18;;;;;;;34.13;22.45;;;;;;;26.23;56.36;100817.75;5057302;28;20111;-76
2022/06/07 08:54:52;;;;;;;23.88;17.85;;;;;;;26.19;56.92;100767.59;5025148;28;20077;-78
2022/06/07 08:57:37;;;;;;;30.83;18.80;;;;;;;26.57;56.50;100801.69;5058189;28;20049;-78
2022/06/07 09:00:16;;;;;;;22.02;17.02;;;;;;;26.13;55.53;100743.22;5024271;28;20115;-77
2022/06/07 09:03:15;;;;;;;20.33;17.20;;;;;;;26.18;56.00;100741.44;5025880;28;20130;-77
2022/06/07 09:05:41;;;;;;;31.75;24.02;;;;;;;26.66;54.12;100804.06;5024875;28;20148;-76
2022/06/07 09:08:12;;;;;;;32.28;24.92;;;;;;;26.31;54.74;100772.19;5025917;28;20115;-76
2022/06/07 09:13:26;;;;;;;32.65;24.45;;;;;;;26.61;54.31;100797.44;5025881;28;20318;-79
2022/06/07 09:15:55;;;;;;;28.55;23.70;;;;;;;26.44;54.35;100782.88;5024870;28;20077;-77
2022/06/07 09:18:28;;;;;;;27.30;20.88;;;;;;;26.54;55.10;100796.72;5025992;28;20049;-77
2022/06/07 09:21:06;;;;;;;40.50;22.30;;;;;;;26.53;55.01;100772.44;5029770;28;20048;-78
2022/06/07 09:23:42;;;;;;;33.10;20.63;;;;;;;26.39;55.06;100742.75;5044320;28;20102;-79
2022/06/07 09:26:28;;;;;;;25.88;22.95;;;;;;;26.51;53.72;100771.88;5044627;28;20661;-77
2022/06/07 09:29:12;;;;;;;27.55;21.70;;;;;;;26.50;53.80;100775.63;5048519;28;20099;-77
2022/06/07 09:31:41;;;;;;;31.85;22.13;;;;;;;26.36;53.96;100766.88;5050049;28;20052;-78
2022/06/07 09:34:25;;;;;;;27.73;20.67;;;;;;;26.72;54.14;100775.88;5049704;28;20041;-75
2022/06/07 09:37:03;;;;;;;32.55;24.85;;;;;;;26.87;54.33;100787.13;5048091;28;20518;-79
2022/06/07 09:39:36;;;;;;;37.00;27.52;;;;;;;26.91;52.66;100769.22;5049330;28;20110;-79
2022/06/07 09:42:22;;;;;;;34.67;24.42;;;;;;;26.80;53.17;100789.13;5047683;28;20055;-78
2022/06/07 09:45:21;;;;;;;22.60;20.15;;;;;;;26.60;53.82;100768.56;5049666;28;20072;-77
2022/06/07 09:47:47;;;;;;;34.03;22.45;;;;;;;26.83;52.47;100785.94;5040435;28;20127;-78
2022/06/07 09:50:18;;;;;;;24.10;18.65;;;;;;;26.67;53.89;100789.38;5047981;28;20115;-79
2022/06/07 09:52:57;;;;;;;28.00;23.35;;;;;;;26.75;53.38;100769.94;5041118;28;20454;-78
2022/06/07 09:55:39;;;;;;;31.15;24.15;;;;;;;26.48;53.23;100698.81;5027788;28;20053;-78
2022/06/07 09:58:22;;;;;;;36.60;31.67;;;;;;;27.12;52.98;100769.63;5028054;28;20095;-78
2022/06/07 10:00:57;;;;;;;34.00;27.80;;;;;;;27.17;53.02;100762.38;5027305;28;20053;-77
2022/06/07 10:03:59;;;;;;;30.63;24.02;;;;;;;27.34;52.05;100765.19;5024363;28;20073;-79
2022/06/07 10:06:32;;;;;;;31.30;25.27;;;;;;;27.15;52.53;100739.16;4996496;28;20459;-78
2022/06/07 10:09:33;;;;;;;39.38;30.52;;;;;;;27.36;51.34;100748.59;5028301;28;20049;-79
2022/06/07 10:12:35;;;;;;;34.20;25.98;;;;;;;27.36;52.00;100751.31;5027613;28;20106;-78
2022/06/07 10:15:29;;;;;;;37.78;26.92;;;;;;;27.51;52.16;100756.22;5026993;28;20411;-78
2022/06/07 10:17:56;;;;;;;37.22;28.48;;;;;;;27.62;51.46;100745.25;5027140;28;20049;-80
2022/06/07 10:21:00;;;;;;;36.75;27.73;;;;;;;27.84;52.55;100747.25;5026872;28;20049;-78
2022/06/07 10:23:27;;;;;;;28.42;22.77;;;;;;;27.83;52.25;100741.00;5007165;28;20453;-79
2022/06/07 10:26:03;;;;;;;39.60;33.47;;;;;;;28.03;50.43;100740.47;5006970;28;20075;-80
2022/06/07 10:29:07;;;;;;;31.73;25.55;;;;;;;28.06;50.07;100733.69;5007196;28;20057;-77
2022/06/07 10:31:54;;;;;;;34.80;26.65;;;;;;;27.84;49.84;100679.06;5039580;28;20066;-78
2022/06/07 10:34:49;;;;;;;27.25;19.23;;;;;;;28.06;50.95;100698.22;5039852;28;20050;-78
2022/06/07 10:38:04;;;;;;;28.50;20.90;;;;;;;28.25;51.61;100712.44;5006885;28;20477;-78
2022/06/07 10:40:41;;;;;;;32.47;24.33;;;;;;;28.27;49.72;100711.09;5006960;28;20054;-78
2022/06/07 10:43:10;;;;;;;28.20;18.00;;;;;;;28.10;51.28;100650.25;5039407;28;20461;-78
2022/06/07 10:45:39;;;;;;;38.70;22.63;;;;;;;28.27;50.81;100713.81;5007829;28;20046;-79
2022/06/07 10:48:18;;;;;;;18.67;16.58;;;;;;;28.17;51.94;100710.94;5006290;28;20042;-78
2022/06/07 10:50:56;;;;;;;24.70;17.80;;;;;;;28.40;51.29;100714.53;5006570;28;20108;-79
2022/06/07 10:53:30;;;;;;;23.65;18.00;;;;;;;28.34;51.21;100709.00;5006158;28;20053;-78
2022/06/07 10:56:10;;;;;;;26.13;20.40;;;;;;;27.83;50.78;100636.50;5039742;28;20135;-80
2022/06/07 10:58:43;;;;;;;20.17;15.23;;;;;;;28.21;52.54;100668.44;5039029;28;20046;-79
2022/06/07 11:01:20;;;;;;;21.52;17.27;;;;;;;27.95;52.40;100629.06;5028182;28;20050;-79
2022/06/07 11:04:05;;;;;;;26.85;20.63;;;;;;;28.47;51.87;100693.38;5026290;28;20053;-78
2022/06/07 11:09:41;;;;;;;23.35;18.55;;;;;;;28.24;50.44;100588.78;5027502;28;20049;-77
2022/06/07 11:12:13;;;;;;;30.67;25.42;;;;;;;28.85;47.92;100672.53;5026074;28;20052;-81
2022/06/07 11:15:02;;;;;;;28.73;23.60;;;;;;;28.94;48.63;100690.94;5026990;28;20053;-78
2022/06/07 11:17:53;;;;;;;29.67;19.73;;;;;;;29.11;48.05;100679.13;5025741;28;20348;-79
2022/06/07 11:20:27;;;;;;;24.95;19.33;;;;;;;29.21;48.03;100686.63;5025887;28;20103;-79
2022/06/07 11:23:38;;;;;;;23.13;16.90;;;;;;;29.29;48.41;100656.88;5005384;28;20046;-78
2022/06/07 11:26:11;;;;;;;29.92;19.88;;;;;;;29.27;45.88;100603.53;5008195;28;20589;-78
2022/06/07 11:28:40;;;;;;;20.50;15.48;;;;;;;29.77;45.80;100657.84;5009157;28;20059;-78
2022/06/07 11:31:35;;;;;;;24.38;16.40;;;;;;;29.90;45.43;100662.03;5006489;28;20077;-79
2022/06/07 11:34:23;;;;;;;26.08;16.65;;;;;;;30.10;44.46;100642.19;5007906;28;20072;-79
2022/06/07 11:37:02;;;;;;;18.85;14.75;;;;;;;30.00;46.31;100629.28;5008422;28;20076;-78
2022/06/07 11:39:32;;;;;;;25.98;16.48;;;;;;;29.94;45.96;100575.59;5006787;28;20474;-79
2022/06/07 11:42:16;;;;;;;18.10;14.00;;;;;;;30.33;46.89;100630.00;5007314;28;20104;-79
2022/06/07 11:44:43;;;;;;;21.65;13.43;;;;;;;30.44;45.37;100623.47;5006973;28;20053;-78
2022/06/07 11:47:09;;;;;;;19.60;12.82;;;;;;;30.28;45.68;100608.06;5007846;28;20052;-80
2022/06/07 11:49:41;;;;;;;17.42;14.75;;;;;;;29.70;44.96;100490.38;5006113;28;20392;-79
2022/06/07 11:52:11;;;;;;;17.52;14.20;;;;;;;30.63;45.74;100615.59;5008615;28;20057;-79
2022/06/07 11:54:51;;;;;;;19.10;13.27;;;;;;;30.59;45.37;100597.22;5027236;28;20403;-78
2022/06/07 11:57:41;;;;;;;16.83;14.13;;;;;;;30.67;45.25;100585.72;5027902;28;20057;-81
2022/06/07 12:00:21;;;;;;;18.53;13.57;;;;;;;30.15;43.66;100499.03;5026215;28;20042;-78
2022/06/07 12:02:57;;;;;;;15.10;13.00;;;;;;;30.47;43.60;100545.44;5059339;28;20060;-77